Time;durP1;ratioP1;P1;durP2;ratioP2;P2;SDS_P1;SDS_P2;PMS_P1;PMS_P2;Temp;Humidity;BMP_temperature;BMP_pressure;BME280_temperature;BME280_humidity;BME280_pressure;Samples;Min_cycle;Max_cycle;Signal;HPM_P1;HPM_P2
2023/04/17 00:01:16;;;;;;;26.50;24.43;;;10.10;1.00;;;;;;5096643;28;20469;-84
2023/04/17 00:03:45;;;;;;;26.23;24.33;;;10.10;1.00;;;;;;5096449;28;20445;-84
2023/04/17 00:06:15;;;;;;;26.57;24.47;;;10.10;1.00;;;;;;5078617;28;20809;-82
2023/04/17 00:08:43;;;;;;;26.97;24.87;;;10.10;1.00;;;;;;5096332;28;20832;-85
2023/04/17 00:11:13;;;;;;;27.50;25.33;;;10.10;1.00;;;;;;5094616;28;20445;-84
2023/04/17 00:13:42;;;;;;;27.33;25.17;;;10.10;1.00;;;;;;5095104;28;20839;-84
2023/04/17 00:16:12;;;;;;;27.27;25.47;;;10.10;1.00;;;;;;5096533;28;20448;-83
2023/04/17 00:18:41;;;;;;;27.97;25.67;;;10.10;1.00;;;;;;5095753;28;20547;-81
2023/04/17 00:21:09;;;;;;;28.00;25.60;;;10.10;1.00;;;;;;5095002;28;20458;-83
2023/04/17 00:23:37;;;;;;;28.73;26.40;;;10.10;1.00;;;;;;5098751;28;20456;-85
2023/04/17 00:26:05;;;;;;;27.80;25.20;;;10.00;1.00;;;;;;5099259;28;20473;-85
2023/04/17 00:28:35;;;;;;;27.03;24.80;;;10.00;1.00;;;;;;5096188;28;20488;-84
2023/04/17 00:31:03;;;;;;;27.23;25.23;;;10.00;1.00;;;;;;5097712;28;20458;-84
2023/04/17 00:33:32;;;;;;;30.20;27.73;;;10.00;1.00;;;;;;5093084;28;20461;-84
2023/04/17 00:36:00;;;;;;;27.10;24.93;;;10.00;1.00;;;;;;5098127;28;20436;-85
2023/04/17 00:38:28;;;;;;;28.47;26.27;;;10.10;1.00;;;;;;5095460;28;20461;-84
2023/04/17 00:40:57;;;;;;;28.23;25.93;;;10.00;1.00;;;;;;5099279;28;20484;-85
2023/04/17 00:43:25;;;;;;;28.50;26.20;;;10.10;1.00;;;;;;5093645;28;20726;-83
2023/04/17 00:45:54;;;;;;;26.23;24.13;;;10.00;1.00;;;;;;5080517;28;20565;-85
2023/04/17 00:48:23;;;;;;;27.80;25.67;;;10.10;1.00;;;;;;5101399;28;20538;-84
2023/04/17 00:50:54;;;;;;;28.50;26.33;;;10.00;1.00;;;;;;5086567;28;20461;-84
2023/04/17 00:53:22;;;;;;;30.83;28.23;;;10.10;1.00;;;;;;5099604;28;20535;-85
2023/04/17 00:55:52;;;;;;;27.10;25.13;;;10.10;1.00;;;;;;5103297;27;20453;-83
2023/04/17 00:58:21;;;;;;;28.47;26.17;;;10.00;1.00;;;;;;5103023;28;20538;-86
2023/04/17 01:00:50;;;;;;;28.27;25.90;;;10.00;1.00;;;;;;5101851;28;20466;-86
2023/04/17 01:03:20;;;;;;;27.83;25.63;;;10.10;1.00;;;;;;5106220;27;20532;-86
2023/04/17 01:05:51;;;;;;;26.20;24.33;;;10.00;1.00;;;;;;5099821;28;20497;-86
2023/04/17 01:08:20;;;;;;;27.50;25.50;;;10.00;1.00;;;;;;5107197;28;20489;-86
2023/04/17 01:10:48;;;;;;;27.37;25.33;;;10.00;1.00;;;;;;5087624;28;20509;-85
2023/04/17 01:13:18;;;;;;;27.63;25.43;;;9.90;1.00;;;;;;5102004;28;20445;-85
2023/04/17 01:15:46;;;;;;;26.00;24.20;;;9.90;1.00;;;;;;5097940;28;20442;-86
2023/04/17 01:18:15;;;;;;;25.80;23.90;;;9.90;1.00;;;;;;5101805;28;20465;-85
2023/04/17 01:20:44;;;;;;;27.13;24.80;;;10.00;1.00;;;;;;5098818;28;20450;-84
2023/04/17 01:23:13;;;;;;;25.90;24.00;;;10.00;1.00;;;;;;5101243;28;20445;-86
2023/04/17 01:25:43;;;;;;;27.73;25.70;;;10.00;1.00;;;;;;5104977;28;20533;-84
2023/04/17 01:28:11;;;;;;;26.67;24.50;;;10.00;1.00;;;;;;5101933;28;20572;-83
2023/04/17 01:30:39;;;;;;;26.73;24.63;;;10.00;1.00;;;;;;5099308;28;20515;-83
2023/04/17 01:33:08;;;;;;;25.73;23.83;;;10.00;1.00;;;;;;5098244;28;20837;-84
2023/04/17 01:35:36;;;;;;;26.63;24.63;;;10.00;1.00;;;;;;5098518;28;20442;-85
2023/04/17 01:38:04;;;;;;;26.57;24.37;;;10.00;1.00;;;;;;5096188;27;20572;-84
2023/04/17 01:40:32;;;;;;;25.50;23.70;;;10.00;1.00;;;;;;5094208;27;21100;-83
2023/04/17 01:43:02;;;;;;;26.13;24.07;;;10.00;1.00;;;;;;5093857;27;20528;-85
2023/04/17 01:45:30;;;;;;;26.57;24.67;;;10.00;1.00;;;;;;5095269;28;20952;-85
2023/04/17 01:47:59;;;;;;;25.83;23.90;;;10.00;1.00;;;;;;5077042;28;20470;-84
2023/04/17 01:50:28;;;;;;;27.60;25.40;;;10.00;1.00;;;;;;5077559;28;20464;-83
2023/04/17 01:52:56;;;;;;;26.20;24.20;;;10.00;1.00;;;;;;5097504;28;20519;-85
2023/04/17 01:55:24;;;;;;;26.17;24.27;;;10.00;1.00;;;;;;5084585;28;20442;-85
2023/04/17 01:57:53;;;;;;;27.30;25.17;;;10.00;1.00;;;;;;5099991;28;20564;-84
2023/04/17 02:00:22;;;;;;;27.07;25.13;;;10.00;1.00;;;;;;5098366;28;20449;-85
2023/04/17 02:02:50;;;;;;;26.17;24.27;;;10.00;1.00;;;;;;5099162;28;20452;-85
2023/04/17 02:05:19;;;;;;;28.20;25.97;;;10.00;1.00;;;;;;5098952;27;20543;-86
2023/04/17 02:07:50;;;;;;;25.97;24.03;;;10.00;1.00;;;;;;5103148;28;20472;-86
2023/04/17 02:10:18;;;;;;;25.87;24.20;;;10.00;1.00;;;;;;5098241;28;20919;-86
2023/04/17 02:12:46;;;;;;;27.17;25.23;;;10.00;1.00;;;;;;5098242;28;20469;-85
2023/04/17 02:15:14;;;;;;;27.37;25.40;;;10.00;1.00;;;;;;5104017;28;20448;-85
2023/04/17 02:17:44;;;;;;;25.17;23.47;;;9.90;1.00;;;;;;5102046;28;20821;-86
2023/04/17 02:20:13;;;;;;;26.53;24.43;;;10.00;1.00;;;;;;5098767;28;20969;-86
2023/04/17 02:22:41;;;;;;;27.03;25.13;;;10.00;1.00;;;;;;5101820;28;20449;-85
2023/04/17 02:25:09;;;;;;;25.10;23.20;;;10.00;1.00;;;;;;5084761;28;21178;-86
2023/04/17 02:27:37;;;;;;;27.13;25.13;;;10.00;1.00;;;;;;5100138;28;20473;-86
2023/04/17 02:30:07;;;;;;;27.37;25.27;;;10.00;1.00;;;;;;5102077;28;20456;-85
2023/04/17 02:32:35;;;;;;;27.27;25.17;;;9.90;1.00;;;;;;5101248;28;20878;-84
2023/04/17 02:35:06;;;;;;;27.17;24.97;;;9.90;1.00;;;;;;5099623;28;20485;-85
2023/04/17 02:37:35;;;;;;;28.03;25.83;;;9.90;1.00;;;;;;5082899;27;22160;-83
2023/04/17 02:40:05;;;;;;;26.67;24.73;;;9.90;1.00;;;;;;5094124;27;21035;-82
2023/04/17 02:42:33;;;;;;;27.00;24.67;;;10.00;1.00;;;;;;5095404;28;21317;-85
2023/04/17 02:45:01;;;;;;;27.23;25.13;;;10.00;1.00;;;;;;5095762;28;20639;-85
2023/04/17 02:47:30;;;;;;;26.47;24.60;;;10.00;1.00;;;;;;5098926;28;20491;-84
2023/04/17 02:49:59;;;;;;;29.17;26.87;;;10.00;1.00;;;;;;5103897;28;20539;-85
2023/04/17 02:52:29;;;;;;;27.63;25.43;;;9.90;1.00;;;;;;5102504;28;20460;-85
2023/04/17 02:54:58;;;;;;;29.40;26.93;;;9.90;1.00;;;;;;5095158;27;20458;-85
2023/04/17 02:57:26;;;;;;;28.90;26.30;;;9.90;1.00;;;;;;5101530;28;20494;-85
2023/04/17 02:59:54;;;;;;;28.87;26.17;;;9.90;1.00;;;;;;5082709;28;20453;-86
2023/04/17 03:02:23;;;;;;;29.73;27.33;;;9.90;1.00;;;;;;5098856;27;20449;-85
2023/04/17 03:04:52;;;;;;;28.10;26.00;;;10.00;1.00;;;;;;5100916;28;20556;-85
2023/04/17 03:07:22;;;;;;;27.30;25.13;;;9.90;1.00;;;;;;5099219;28;20824;-84
2023/04/17 03:09:52;;;;;;;29.93;27.33;;;9.90;1.00;;;;;;5097524;28;20472;-86
2023/04/17 03:12:21;;;;;;;28.10;26.10;;;9.90;1.00;;;;;;5101956;28;20445;-85
2023/04/17 03:14:49;;;;;;;28.40;26.10;;;9.80;1.00;;;;;;5097231;28;20554;-85
2023/04/17 03:17:19;;;;;;;28.00;25.70;;;9.80;1.00;;;;;;5098107;28;20990;-83
2023/04/17 03:19:47;;;;;;;27.77;25.53;;;9.80;1.00;;;;;;5098152;28;20971;-85
2023/04/17 03:22:15;;;;;;;27.57;25.40;;;9.80;1.00;;;;;;5099864;28;21140;-84
2023/04/17 03:24:43;;;;;;;28.47;26.30;;;9.90;1.00;;;;;;5094494;28;20453;-85
2023/04/17 03:27:13;;;;;;;29.03;26.80;;;9.90;1.00;;;;;;5098968;28;20481;-85
2023/04/17 03:29:41;;;;;;;28.33;25.90;;;9.90;1.00;;;;;;5096180;28;20462;-87
2023/04/17 03:32:09;;;;;;;28.67;26.40;;;9.90;1.00;;;;;;5102011;28;20448;-87
2023/04/17 03:34:37;;;;;;;27.90;25.87;;;9.80;1.00;;;;;;5102898;28;20461;-86
2023/04/17 03:37:06;;;;;;;29.53;27.10;;;9.90;1.00;;;;;;5083021;28;20464;-85
2023/04/17 03:39:34;;;;;;;28.80;26.60;;;9.90;1.00;;;;;;5096221;28;20473;-86
2023/04/17 03:42:02;;;;;;;28.10;25.90;;;9.90;1.00;;;;;;5096141;28;20478;-85
2023/04/17 03:44:32;;;;;;;29.50;27.23;;;9.90;1.00;;;;;;5095275;28;20461;-84
2023/04/17 03:47:00;;;;;;;28.30;25.87;;;9.90;1.00;;;;;;5092584;28;20485;-85
2023/04/17 03:49:28;;;;;;;27.53;25.53;;;9.90;1.00;;;;;;5092702;27;20451;-86
2023/04/17 03:51:57;;;;;;;28.40;26.27;;;9.90;1.00;;;;;;5093494;28;20458;-84
2023/04/17 03:54:26;;;;;;;30.20;27.97;;;9.90;1.00;;;;;;5095464;27;20453;-85
2023/04/17 03:56:56;;;;;;;30.07;27.60;;;9.90;1.00;;;;;;5092699;28;20545;-85
2023/04/17 03:59:24;;;;;;;31.60;29.13;;;9.80;1.00;;;;;;5095181;28;20726;-84
2023/04/17 04:01:54;;;;;;;31.03;28.37;;;9.80;1.00;;;;;;5090458;28;21023;-86
2023/04/17 04:04:22;;;;;;;30.10;27.73;;;9.80;1.00;;;;;;5095156;28;20451;-85
2023/04/17 04:06:53;;;;;;;29.63;27.27;;;9.80;1.00;;;;;;5085532;28;20517;-84
2023/04/17 04:09:21;;;;;;;30.03;27.77;;;9.80;1.00;;;;;;5094252;28;20458;-84
2023/04/17 04:11:49;;;;;;;29.50;27.30;;;9.80;1.00;;;;;;5093149;28;20455;-85
2023/04/17 04:14:17;;;;;;;30.33;27.83;;;9.80;1.00;;;;;;5095193;28;20494;-84
2023/04/17 04:16:46;;;;;;;29.73;27.17;;;9.80;1.00;;;;;;5076450;28;20483;-83
2023/04/17 04:19:15;;;;;;;29.33;27.37;;;9.80;1.00;;;;;;5094768;28;21064;-83
2023/04/17 04:21:44;;;;;;;27.87;25.67;;;9.80;1.00;;;;;;5097647;28;21158;-85
2023/04/17 04:24:13;;;;;;;27.70;25.70;;;9.80;1.00;;;;;;5099370;28;20832;-84
2023/04/17 04:26:42;;;;;;;27.60;25.60;;;9.80;1.00;;;;;;5094423;28;20505;-84
2023/04/17 04:29:12;;;;;;;29.33;26.97;;;9.80;1.00;;;;;;5099382;28;20464;-86
2023/04/17 04:31:41;;;;;;;30.00;27.70;;;9.80;1.00;;;;;;5097920;28;20527;-84
2023/04/17 04:34:09;;;;;;;27.73;25.73;;;9.80;1.00;;;;;;5095876;28;20467;-82
2023/04/17 04:36:49;;;;;;;29.17;26.87;;;9.80;1.00;;;;;;5096261;28;20457;-83
2023/04/17 04:39:19;;;;;;;29.03;26.93;;;9.80;1.00;;;;;;5096952;28;20548;-85
2023/04/17 04:41:49;;;;;;;29.83;27.63;;;9.90;1.00;;;;;;5098628;28;20464;-84
2023/04/17 04:44:17;;;;;;;29.67;27.53;;;9.80;1.00;;;;;;5094459;28;20442;-84
2023/04/17 04:46:45;;;;;;;27.80;25.70;;;9.80;1.00;;;;;;5095410;28;20569;-83
2023/04/17 04:49:14;;;;;;;27.17;25.07;;;9.90;1.00;;;;;;5095516;28;20894;-83
2023/04/17 04:51:43;;;;;;;28.07;25.93;;;9.90;1.00;;;;;;5089009;27;20453;-82
2023/04/17 04:54:12;;;;;;;27.50;25.60;;;9.90;1.00;;;;;;5096823;28;21014;-83
2023/04/17 04:56:43;;;;;;;27.17;25.27;;;9.90;1.00;;;;;;5093219;28;20498;-82
2023/04/17 04:59:12;;;;;;;28.47;26.40;;;9.90;1.00;;;;;;5094673;28;20843;-82
2023/04/17 05:01:40;;;;;;;28.70;26.60;;;9.90;1.00;;;;;;5096025;28;20457;-82
2023/04/17 05:04:08;;;;;;;29.03;26.60;;;9.90;1.00;;;;;;5095787;28;20459;-83
2023/04/17 05:06:37;;;;;;;28.53;26.40;;;9.90;1.00;;;;;;5085505;28;20463;-82
2023/04/17 05:09:06;;;;;;;28.67;26.47;;;10.00;1.00;;;;;;5095586;28;20572;-84
2023/04/17 05:11:35;;;;;;;28.23;26.27;;;9.90;99.90;;;;;;5096681;27;20450;-83
2023/04/17 05:14:03;;;;;;;29.20;26.90;;;9.90;1.00;;;;;;5098435;28;20453;-83
2023/04/17 05:16:31;;;;;;;28.87;26.63;;;9.90;1.00;;;;;;5096257;28;20460;-83
2023/04/17 05:19:00;;;;;;;28.23;26.33;;;9.90;1.00;;;;;;5098165;28;20457;-84
2023/04/17 05:21:28;;;;;;;28.60;26.30;;;9.90;99.90;;;;;;5092786;27;20453;-82
2023/04/17 05:23:58;;;;;;;28.23;26.33;;;9.90;99.90;;;;;;5095094;28;20458;-81
2023/04/17 05:26:27;;;;;;;29.97;27.60;;;9.90;99.90;;;;;;5095547;28;20494;-82
2023/04/17 05:28:55;;;;;;;27.53;25.53;;;10.00;99.90;;;;;;5095742;27;20483;-82
2023/04/17 05:31:25;;;;;;;28.97;26.90;;;10.00;99.90;;;;;;5096638;28;20442;-82
2023/04/17 05:33:53;;;;;;;28.67;26.47;;;10.00;99.90;;;;;;5091169;27;20445;-82
2023/04/17 05:36:21;;;;;;;29.03;26.90;;;10.00;99.90;;;;;;5094893;28;20458;-82
2023/04/17 05:38:49;;;;;;;29.20;27.00;;;9.90;99.90;;;;;;5094443;28;20459;-82
2023/04/17 05:41:18;;;;;;;28.93;26.30;;;9.90;99.90;;;;;;5095732;28;20454;-83
2023/04/17 05:43:47;;;;;;;29.20;26.83;;;9.90;1.00;;;;;;5091964;27;20513;-82
2023/04/17 05:46:15;;;;;;;30.10;27.67;;;10.00;1.00;;;;;;5097868;27;20492;-82
2023/04/17 05:48:43;;;;;;;29.23;27.03;;;10.00;1.00;;;;;;5096095;28;20527;-83
2023/04/17 05:51:11;;;;;;;27.37;25.47;;;9.90;1.00;;;;;;5076060;28;20454;-83
2023/04/17 05:53:40;;;;;;;29.23;27.03;;;10.00;1.00;;;;;;5093483;28;20447;-83
2023/04/17 05:56:08;;;;;;;28.50;26.43;;;10.00;1.00;;;;;;5093587;28;20464;-82
2023/04/17 05:58:36;;;;;;;30.83;28.43;;;10.00;1.00;;;;;;5095632;28;20473;-83
2023/04/17 06:01:06;;;;;;;28.30;26.30;;;10.00;99.90;;;;;;5091303;28;20502;-82
2023/04/17 06:03:34;;;;;;;29.30;27.17;;;10.00;1.00;;;;;;5096012;28;20538;-83
2023/04/17 06:06:02;;;;;;;35.00;32.23;;;10.00;99.90;;;;;;5095717;28;20458;-83
2023/04/17 06:08:30;;;;;;;31.00;28.60;;;10.00;99.90;;;;;;5094501;28;20481;-82
2023/04/17 06:10:58;;;;;;;31.13;28.53;;;10.00;99.90;;;;;;5094286;28;20448;-82
2023/04/17 06:13:27;;;;;;;28.97;26.97;;;10.00;99.90;;;;;;5098751;28;21091;-82
2023/04/17 06:15:55;;;;;;;27.83;25.83;;;10.00;99.90;;;;;;5094731;28;21326;-82
2023/04/17 06:18:24;;;;;;;29.87;27.77;;;10.00;99.90;;;;;;5096829;27;20548;-81
2023/04/17 06:20:52;;;;;;;33.07;30.30;;;10.00;99.90;;;;;;5093609;28;20466;-83
2023/04/17 06:23:21;;;;;;;32.27;29.47;;;10.00;99.90;;;;;;5094899;28;20972;-83
2023/04/17 06:25:49;;;;;;;31.90;29.30;;;10.00;99.90;;;;;;5073245;28;20481;-83
2023/04/17 06:28:17;;;;;;;30.77;28.47;;;10.00;99.90;;;;;;5093565;28;20527;-82
2023/04/17 06:30:45;;;;;;;27.57;25.60;;;10.00;99.90;;;;;;5093473;28;20452;-83
2023/04/17 06:33:14;;;;;;;29.43;27.37;;;10.00;1.00;;;;;;5097122;28;20519;-84
2023/04/17 06:35:43;;;;;;;31.17;28.83;;;10.10;1.00;;;;;;5093092;28;20458;-83
2023/04/17 06:38:11;;;;;;;31.40;28.90;;;10.10;99.90;;;;;;5094969;27;21141;-83
2023/04/17 06:40:40;;;;;;;28.87;26.73;;;10.00;1.00;;;;;;5091187;28;20512;-83
2023/04/17 06:43:08;;;;;;;28.67;26.67;;;10.00;99.90;;;;;;5097731;28;20454;-82
2023/04/17 06:45:36;;;;;;;28.00;26.13;;;10.00;1.00;;;;;;5093031;28;20449;-82
2023/04/17 06:48:05;;;;;;;27.53;25.73;;;10.00;1.00;;;;;;5091330;28;20481;-83
2023/04/17 06:50:33;;;;;;;26.93;24.93;;;10.00;1.00;;;;;;5076950;28;20449;-82
2023/04/17 06:53:03;;;;;;;25.57;23.80;;;10.10;1.00;;;;;;5097088;27;20684;-83
2023/04/17 06:55:31;;;;;;;25.67;23.93;;;10.10;1.00;;;;;;5091764;28;20473;-83
2023/04/17 06:57:59;;;;;;;27.07;25.17;;;10.10;99.90;;;;;;5094945;28;20481;-83
2023/04/17 07:00:27;;;;;;;26.27;24.40;;;10.10;99.90;;;;;;5087944;28;20510;-83
2023/04/17 07:02:56;;;;;;;25.20;23.43;;;10.10;99.90;;;;;;5089513;27;20456;-83
2023/04/17 07:05:24;;;;;;;26.03;24.30;;;10.00;1.00;;;;;;5091745;28;20454;-83
2023/04/17 07:07:52;;;;;;;24.27;22.60;;;10.10;1.00;;;;;;5095381;28;20524;-82
2023/04/17 07:10:22;;;;;;;24.13;22.63;;;10.10;1.00;;;;;;5093118;27;20534;-83
2023/04/17 07:12:50;;;;;;;24.83;23.23;;;10.10;1.00;;;;;;5092533;28;20453;-82
2023/04/17 07:15:18;;;;;;;24.20;22.50;;;10.10;1.00;;;;;;5096644;28;20534;-84
2023/04/17 07:17:47;;;;;;;24.60;23.13;;;10.10;1.00;;;;;;5097333;28;20478;-83
2023/04/17 07:20:15;;;;;;;24.87;23.37;;;10.20;1.00;;;;;;5096323;28;20474;-82
2023/04/17 07:22:43;;;;;;;24.23;22.63;;;10.20;1.00;;;;;;5093837;27;20580;-83
2023/04/17 07:25:11;;;;;;;24.20;22.70;;;10.20;1.00;;;;;;5095113;28;20461;-83
2023/04/17 07:27:41;;;;;;;23.60;22.17;;;10.20;1.00;;;;;;5095136;28;20478;-83
2023/04/17 07:30:10;;;;;;;24.97;23.27;;;10.20;1.00;;;;;;5095929;28;20474;-84
2023/04/17 07:32:38;;;;;;;25.30;23.43;;;10.30;1.00;;;;;;5094965;28;20454;-83
2023/04/17 07:35:07;;;;;;;25.40;23.70;;;10.20;1.00;;;;;;5096114;28;20583;-83
2023/04/17 07:37:35;;;;;;;26.90;25.10;;;10.20;99.90;;;;;;5094888;28;20496;-83
2023/04/17 07:40:08;;;;;;;26.67;24.87;;;10.10;99.90;;;;;;5094486;28;20898;-83
2023/04/17 07:42:36;;;;;;;27.90;25.90;;;10.10;1.00;;;;;;5093594;28;20456;-84
2023/04/17 07:45:07;;;;;;;26.40;24.60;;;10.10;1.00;;;;;;5084242;28;20925;-83
2023/04/17 07:47:35;;;;;;;25.93;24.23;;;10.10;1.00;;;;;;5092734;28;20468;-83
2023/04/17 07:50:04;;;;;;;26.67;24.77;;;10.10;1.00;;;;;;5075698;28;20550;-83
2023/04/17 07:52:32;;;;;;;25.97;24.27;;;10.10;1.00;;;;;;5091916;27;20457;-83
2023/04/17 07:55:00;;;;;;;26.07;24.37;;;10.10;1.00;;;;;;5093602;28;20473;-83
2023/04/17 07:57:28;;;;;;;25.77;24.00;;;10.10;1.00;;;;;;5092470;28;20477;-84
2023/04/17 07:59:57;;;;;;;25.50;23.70;;;10.10;1.00;;;;;;5093723;28;20529;-84
2023/04/17 08:02:28;;;;;;;23.93;22.30;;;10.10;1.00;;;;;;5095576;28;20952;-84
2023/04/17 08:04:56;;;;;;;24.83;23.07;;;10.10;1.00;;;;;;5097279;28;20521;-82
2023/04/17 08:07:25;;;;;;;24.40;22.90;;;10.20;1.00;;;;;;5095409;28;20481;-83
2023/04/17 08:09:54;;;;;;;25.30;23.70;;;10.20;1.00;;;;;;5092733;28;20470;-83
2023/04/17 08:12:22;;;;;;;24.60;23.10;;;10.20;1.00;;;;;;5095113;28;21030;-83
2023/04/17 08:14:50;;;;;;;23.47;22.00;;;10.20;1.00;;;;;;5092806;28;20454;-83
2023/04/17 08:17:22;;;;;;;24.03;22.63;;;10.30;1.00;;;;;;5095053;28;20563;-83
2023/04/17 08:19:53;;;;;;;24.23;22.80;;;10.40;1.00;;;;;;5095454;28;20502;-83
2023/04/17 08:22:23;;;;;;;23.87;22.47;;;10.40;1.00;;;;;;5093767;28;20499;-83
2023/04/17 08:24:53;;;;;;;23.83;22.37;;;10.50;1.00;;;;;;5096370;28;21002;-84
2023/04/17 08:27:21;;;;;;;22.30;21.00;;;10.50;1.00;;;;;;5084836;28;20821;-83
2023/04/17 08:29:50;;;;;;;23.23;21.93;;;10.50;1.00;;;;;;5074990;28;20472;-84
2023/04/17 08:32:18;;;;;;;22.40;21.10;;;10.50;1.00;;;;;;5092949;28;20496;-83
2023/04/17 08:34:46;;;;;;;21.73;20.73;;;10.50;1.00;;;;;;5097365;28;20448;-84
2023/04/17 08:37:16;;;;;;;22.03;20.77;;;10.50;1.00;;;;;;5095357;28;20834;-83
2023/04/17 08:39:44;;;;;;;22.07;20.80;;;10.50;1.00;;;;;;5093437;28;20445;-83
2023/04/17 08:42:13;;;;;;;21.70;20.50;;;10.50;1.00;;;;;;5094015;28;20453;-84
2023/04/17 08:44:46;;;;;;;21.10;20.00;;;10.60;1.00;;;;;;5094457;28;20507;-83
2023/04/17 08:47:14;;;;;;;22.90;21.60;;;10.60;1.00;;;;;;5093953;28;20469;-82
2023/04/17 08:49:44;;;;;;;22.03;21.00;;;10.60;1.00;;;;;;5092496;28;20477;-83
2023/04/17 08:52:13;;;;;;;22.83;21.53;;;10.50;1.00;;;;;;5094537;28;20517;-83
2023/04/17 08:54:42;;;;;;;21.80;20.70;;;10.60;1.00;;;;;;5087552;28;20464;-83
2023/04/17 08:57:11;;;;;;;22.43;21.23;;;10.60;1.00;;;;;;5093741;28;20515;-83
2023/04/17 08:59:39;;;;;;;22.03;20.83;;;10.60;1.00;;;;;;5092371;28;20518;-83
2023/04/17 09:02:09;;;;;;;21.77;20.60;;;10.60;1.00;;;;;;5093112;28;20461;-83
2023/04/17 09:04:41;;;;;;;21.70;20.70;;;10.60;1.00;;;;;;5088517;28;20527;-83
2023/04/17 09:07:11;;;;;;;22.60;21.30;;;10.60;1.00;;;;;;5092832;28;20465;-84
2023/04/17 09:09:50;;;;;;;21.60;20.50;;;10.60;1.00;;;;;;5095429;27;20468;-83
2023/04/17 09:12:20;;;;;;;21.00;20.00;;;10.60;1.00;;;;;;5096517;28;20451;-83
2023/04/17 09:14:48;;;;;;;22.27;21.07;;;10.60;1.00;;;;;;5099839;28;20449;-84
2023/04/17 09:17:18;;;;;;;22.13;20.93;;;10.60;1.00;;;;;;5081250;28;21184;-83
2023/04/17 09:20:02;;;;;;;20.83;19.87;;;10.50;1.00;;;;;;5097437;28;20449;-83
2023/04/17 09:22:31;;;;;;;21.83;20.83;;;10.50;1.00;;;;;;5095246;28;20508;-83
2023/04/17 09:25:00;;;;;;;20.70;19.70;;;10.50;1.00;;;;;;5097147;28;20449;-83
2023/04/17 09:27:29;;;;;;;21.50;20.20;;;10.50;1.00;;;;;;5097834;27;20472;-85
2023/04/17 09:30:00;;;;;;;22.23;21.07;;;10.60;1.00;;;;;;5098606;28;20558;-83
2023/04/17 09:32:29;;;;;;;22.20;20.93;;;10.50;1.00;;;;;;5096835;28;20450;-83
2023/04/17 09:34:58;;;;;;;21.20;20.10;;;10.60;1.00;;;;;;5099343;28;20455;-83
2023/04/17 09:37:46;;;;;;;22.27;21.10;;;10.60;1.00;;;;;;5094801;28;20455;-83
2023/04/17 09:40:16;;;;;;;21.63;20.50;;;10.60;1.00;;;;;;5095135;28;21028;-83
2023/04/17 09:42:55;;;;;;;22.60;21.43;;;10.60;1.00;;;;;;5098838;28;20488;-83
2023/04/17 09:45:24;;;;;;;21.87;20.47;;;10.70;1.00;;;;;;5095578;28;20446;-83
2023/04/17 09:47:55;;;;;;;22.03;20.77;;;10.80;1.00;;;;;;5096527;28;20506;-84
2023/04/17 09:50:24;;;;;;;20.90;19.80;;;10.90;1.00;;;;;;5096419;28;20649;-84
2023/04/17 09:52:54;;;;;;;21.50;20.30;;;11.00;1.00;;;;;;5095107;28;20820;-83
2023/04/17 09:55:25;;;;;;;20.93;19.87;;;11.00;1.00;;;;;;5097040;28;20444;-83
2023/04/17 09:57:55;;;;;;;21.23;20.03;;;11.20;1.00;;;;;;5095853;28;20484;-82
2023/04/17 10:00:25;;;;;;;19.93;19.03;;;11.30;1.00;;;;;;5097416;27;20449;-83
2023/04/17 10:02:56;;;;;;;21.23;20.13;;;11.30;1.00;;;;;;5095457;27;21122;-86
2023/04/17 10:05:25;;;;;;;21.47;20.40;;;11.30;1.00;;;;;;5094433;28;22326;-83
2023/04/17 10:07:54;;;;;;;21.67;20.57;;;11.30;1.00;;;;;;5095290;28;20468;-83
2023/04/17 10:10:25;;;;;;;21.53;20.43;;;11.30;1.00;;;;;;5094870;28;20473;-83
2023/04/17 10:12:57;;;;;;;20.83;19.83;;;11.20;1.00;;;;;;5096074;28;21025;-83
2023/04/17 10:15:26;;;;;;;21.00;19.90;;;11.10;99.90;;;;;;5097212;28;20455;-83
2023/04/17 10:17:56;;;;;;;20.77;19.87;;;11.10;1.00;;;;;;5096872;28;20470;-82
2023/04/17 10:20:38;;;;;;;20.37;19.57;;;11.00;1.00;;;;;;5094025;28;20541;-83
2023/04/17 10:23:30;;;;;;;20.40;19.40;;;11.00;1.00;;;;;;5095564;27;20458;-84
2023/04/17 10:26:40;;;;;;;20.43;19.47;;;11.00;1.00;;;;;;5087392;28;20446;-83
2023/04/17 10:29:11;;;;;;;21.40;20.40;;;11.10;1.00;;;;;;5075678;28;20468;-83
2023/04/17 10:32:27;;;;;;;20.97;19.97;;;11.20;1.00;;;;;;5094339;28;20503;-81
2023/04/17 10:34:57;;;;;;;21.53;20.57;;;11.40;1.00;;;;;;5092875;28;20545;-83
2023/04/17 10:37:58;;;;;;;20.83;19.93;;;11.60;1.00;;;;;;5087334;28;20649;-83
2023/04/17 10:40:30;;;;;;;20.83;19.83;;;11.70;1.00;;;;;;5094078;28;21831;-83
2023/04/17 10:43:11;;;;;;;21.10;20.00;;;11.70;1.00;;;;;;5095134;28;20499;-83
2023/04/17 10:46:08;;;;;;;20.00;19.10;;;11.70;1.00;;;;;;5093512;28;20457;-84
2023/04/17 10:48:40;;;;;;;20.60;19.70;;;11.60;1.00;;;;;;5091328;28;21077;-84
2023/04/17 10:51:42;;;;;;;20.20;19.23;;;11.60;99.90;;;;;;5091507;28;21020;-83
2023/04/17 10:54:14;;;;;;;21.23;20.33;;;11.50;99.90;;;;;;5081818;28;20471;-83
2023/04/17 10:56:44;;;;;;;20.40;19.50;;;11.40;99.90;;;;;;5092839;28;20448;-82
2023/04/17 10:59:14;;;;;;;20.80;19.80;;;11.40;99.90;;;;;;5096351;27;20448;-83
2023/04/17 11:01:59;;;;;;;21.30;20.20;;;11.40;1.00;;;;;;5078780;28;20452;-82
2023/04/17 11:04:30;;;;;;;20.93;19.70;;;11.30;99.90;;;;;;5093835;28;20456;-82
2023/04/17 11:06:58;;;;;;;20.63;19.73;;;11.40;99.90;;;;;;5095037;28;20472;-82
2023/04/17 11:09:29;;;;;;;21.10;20.00;;;11.40;1.00;;;;;;5095205;28;20870;-83
2023/04/17 11:12:00;;;;;;;21.97;20.87;;;11.40;99.90;;;;;;5089091;28;20821;-84
2023/04/17 11:14:29;;;;;;;21.77;20.67;;;11.40;99.90;;;;;;5095031;28;20454;-84
2023/04/17 11:16:59;;;;;;;22.60;21.50;;;11.50;99.90;;;;;;5094439;28;21089;-81
2023/04/17 11:19:27;;;;;;;21.93;20.93;;;11.50;99.90;;;;;;5093868;28;21009;-82
2023/04/17 11:21:57;;;;;;;21.70;20.70;;;11.50;99.90;;;;;;5095152;28;21582;-83
2023/04/17 11:24:28;;;;;;;22.20;21.07;;;11.50;99.90;;;;;;5099673;28;20441;-83
2023/04/17 11:26:59;;;;;;;22.50;21.40;;;11.60;99.90;;;;;;5092075;28;20468;-84
2023/04/17 11:29:27;;;;;;;21.57;20.57;;;11.70;99.90;;;;;;5092483;28;20549;-80
2023/04/17 11:31:57;;;;;;;21.50;20.50;;;11.80;99.90;;;;;;5091700;28;20855;-82
2023/04/17 11:34:27;;;;;;;21.77;20.57;;;11.90;99.90;;;;;;5094443;28;20521;-83
2023/04/17 11:36:57;;;;;;;23.27;22.07;;;12.10;99.90;;;;;;5093632;28;20490;-83
2023/04/17 11:39:27;;;;;;;23.10;21.80;;;12.40;99.90;;;;;;5093822;28;20521;-83
2023/04/17 11:41:56;;;;;;;25.07;23.53;;;12.70;99.90;;;;;;5091835;28;20443;-83
2023/04/17 11:44:25;;;;;;;21.30;20.20;;;12.90;1.00;;;;;;5093240;28;20505;-84
2023/04/17 11:46:55;;;;;;;20.37;19.47;;;12.90;32.80;;;;;;5093860;28;20473;-83
2023/04/17 11:49:28;;;;;;;21.10;20.00;;;13.00;1.00;;;;;;5096133;28;20465;-85
2023/04/17 11:51:59;;;;;;;21.63;20.53;;;13.10;41.50;;;;;;5094332;28;20571;-84
2023/04/17 11:54:27;;;;;;;21.00;20.10;;;13.20;1.00;;;;;;5092502;28;20450;-83
2023/04/17 11:57:03;;;;;;;20.57;19.67;;;13.10;99.90;;;;;;5094976;28;20467;-83
2023/04/17 11:59:32;;;;;;;19.97;19.07;;;13.20;99.90;;;;;;5094019;28;20448;-81
2023/04/17 12:02:02;;;;;;;19.47;18.63;;;13.20;99.90;;;;;;5094608;28;20453;-83
2023/04/17 12:04:33;;;;;;;26.40;24.50;;;13.30;99.90;;;;;;5095812;28;21279;-83
2023/04/17 12:07:02;;;;;;;21.53;20.33;;;13.40;99.90;;;;;;5093733;28;20476;-83
2023/04/17 12:09:31;;;;;;;19.60;18.80;;;13.40;1.00;;;;;;5094405;28;20459;-84
2023/04/17 12:12:01;;;;;;;20.60;19.70;;;13.40;1.00;;;;;;5096465;28;20533;-83
2023/04/17 12:14:30;;;;;;;20.57;19.67;;;13.50;99.90;;;;;;5097735;28;20450;-83
2023/04/17 12:16:58;;;;;;;20.70;19.70;;;13.40;1.00;;;;;;5094752;28;21206;-84
2023/04/17 12:19:28;;;;;;;20.73;19.73;;;13.50;99.90;;;;;;5092991;28;20471;-84
2023/04/17 12:21:58;;;;;;;21.27;20.27;;;13.50;99.90;;;;;;5095332;28;20528;-83
2023/04/17 12:24:26;;;;;;;21.90;20.83;;;13.40;99.90;;;;;;5078254;28;20549;-82
2023/04/17 12:26:55;;;;;;;22.00;20.90;;;13.40;99.90;;;;;;5095963;28;20465;-83
2023/04/17 12:29:23;;;;;;;21.00;20.00;;;13.30;99.90;;;;;;5121077;28;20540;-84
2023/04/17 12:32:10;;;;;;;20.43;19.53;;;13.20;1.00;;;;;;5096130;28;20482;-83
2023/04/17 12:34:39;;;;;;;21.50;20.50;;;13.10;1.00;;;;;;5095718;28;20460;-83
2023/04/17 12:37:09;;;;;;;21.77;20.67;;;12.90;99.90;;;;;;5095961;28;20548;-82
2023/04/17 12:39:37;;;;;;;21.07;20.17;;;12.70;85.90;;;;;;5095328;28;20513;-83
2023/04/17 12:42:05;;;;;;;21.63;20.53;;;12.70;99.90;;;;;;5078234;28;20452;-83
2023/04/17 12:44:33;;;;;;;20.83;19.90;;;12.60;1.00;;;;;;5096689;28;20510;-83
2023/04/17 12:47:02;;;;;;;20.77;19.77;;;12.50;99.90;;;;;;5096547;28;21040;-82
2023/04/17 12:49:30;;;;;;;21.87;20.97;;;12.40;99.90;;;;;;5095631;28;21168;-83
2023/04/17 12:51:58;;;;;;;21.67;20.50;;;12.40;1.00;;;;;;5097904;28;20471;-82